Time;durP1;ratioP1;P1;durP2;ratioP2;P2;SDS_P1;SDS_P2;PMS_P1;PMS_P2;Temp;Humidity;BMP_temperature;BMP_pressure;BME280_temperature;BME280_humidity;BME280_pressure;Samples;Min_cycle;Max_cycle;Signal;HPM_P1;HPM_P2
2023/12/19 00:01:35;;;;;;;8.17;5.17;;;10.80;99.90;;;11.47;50.13;102325.88;6016068;23;106709;-41
2023/12/19 00:04:09;;;;;;;7.57;4.63;;;10.70;99.90;;;11.18;48.50;102313.91;5916713;23;109012;-41
2023/12/19 00:06:37;;;;;;;5.17;3.63;;;10.60;99.90;;;11.20;55.01;102300.66;5997157;23;102024;-42
2023/12/19 00:09:05;;;;;;;7.40;5.37;;;10.50;99.90;;;11.02;49.04;102312.34;5952389;23;102383;-40
2023/12/19 00:11:34;;;;;;;7.20;4.67;;;10.40;99.90;;;10.95;49.94;102311.50;6009865;22;97872;-40
2023/12/19 00:14:07;;;;;;;6.37;4.40;;;10.30;99.90;;;11.07;55.96;102299.06;6033213;23;98852;-39
2023/12/19 00:16:37;;;;;;;7.80;4.53;;;10.30;99.90;;;11.14;52.40;102300.72;6016925;22;102217;-39
2023/12/19 00:19:03;;;;;;;6.70;4.20;;;10.40;99.90;;;11.15;53.84;102310.44;6011361;22;124920;-38
2023/12/19 00:21:28;;;;;;;5.87;3.47;;;10.40;99.90;;;11.35;56.48;102300.47;5966247;22;97483;-42
2023/12/19 00:23:54;;;;;;;4.80;2.67;;;10.70;99.90;;;11.44;56.32;102300.38;5985033;22;115858;-45
2023/12/19 00:26:21;;;;;;;8.53;4.87;;;10.80;99.90;;;11.23;51.00;102290.06;5998221;22;98827;-42
2023/12/19 00:28:47;;;;;;;7.13;4.50;;;10.70;99.90;;;11.41;54.43;102273.97;6011820;22;99096;-45
2023/12/19 00:31:28;;;;;;;6.00;2.80;;;10.80;99.90;;;11.45;55.93;102270.41;5915851;23;116900;-42
2023/12/19 00:33:53;;;;;;;7.93;4.87;;;10.80;99.90;;;11.54;51.50;102270.25;5990285;22;98111;-39
2023/12/19 00:36:25;;;;;;;5.33;2.70;;;11.00;99.90;;;11.88;55.19;102253.94;5942189;23;112449;-41
2023/12/19 00:38:51;;;;;;;5.57;3.03;;;11.30;99.90;;;12.06;54.80;102258.94;6004606;22;97607;-38
2023/12/19 00:41:20;;;;;;;9.53;5.03;;;11.60;99.90;;;12.32;53.74;102265.56;6023084;22;115536;-39
2023/12/19 00:43:48;;;;;;;6.87;4.30;;;11.90;99.90;;;12.41;53.67;102271.53;5997648;22;106963;-43
2023/12/19 00:46:14;;;;;;;6.73;4.97;;;12.00;99.90;;;12.37;49.59;102269.00;6016633;22;101853;-40
2023/12/19 00:48:40;;;;;;;9.00;5.00;;;11.90;99.90;;;12.31;50.91;102274.41;6020278;22;97642;-40
2023/12/19 00:51:13;;;;;;;5.73;4.07;;;11.60;99.90;;;12.15;53.35;102274.66;5860392;22;97285;-46
2023/12/19 00:53:40;;;;;;;4.00;2.80;;;11.40;99.90;;;12.14;53.31;102283.47;5978483;23;97406;-44
2023/12/19 00:56:09;;;;;;;9.27;4.83;;;11.30;99.90;;;11.98;50.36;102276.69;6082449;22;99719;-41
2023/12/19 00:58:36;;;;;;;6.77;4.33;;;11.20;99.90;;;11.93;52.29;102283.81;6068662;22;102974;-41
2023/12/19 01:01:06;;;;;;;6.70;4.27;;;11.10;99.90;;;12.02;49.79;102273.13;6031102;22;97752;-40
2023/12/19 01:03:33;;;;;;;6.03;4.13;;;11.30;99.90;;;11.92;53.56;102260.94;6066893;22;98156;-41
2023/12/19 01:06:00;;;;;;;7.87;4.77;;;11.20;99.90;;;12.14;52.04;102258.78;5951078;22;104923;-39
2023/12/19 01:08:30;;;;;;;5.27;3.03;;;11.40;99.90;;;12.37;53.60;102258.41;5949357;22;97976;-42
2023/12/19 01:10:56;;;;;;;6.97;3.60;;;11.70;99.90;;;12.53;51.60;102257.22;5928166;23;109754;-40
2023/12/19 01:13:22;;;;;;;3.00;2.47;;;12.00;99.90;;;12.63;53.88;102250.00;6046653;22;98033;-46
2023/12/19 01:15:49;;;;;;;4.07;2.60;;;12.00;99.90;;;12.70;52.93;102257.78;6003957;23;99139;-47
2023/12/19 01:18:15;;;;;;;2.80;2.13;;;12.20;99.90;;;12.63;53.38;102261.47;5986705;22;102120;-46
2023/12/19 01:20:41;;;;;;;4.80;3.90;;;12.10;99.90;;;12.57;47.66;102256.25;6033881;23;98774;-47
2023/12/19 01:23:07;;;;;;;3.30;2.33;;;12.10;99.90;;;12.71;52.95;102248.94;5991335;22;102585;-43
2023/12/19 01:25:33;;;;;;;7.07;4.43;;;12.20;99.90;;;12.62;49.85;102246.47;6001249;22;100388;-39
2023/12/19 01:28:04;;;;;;;4.63;3.17;;;12.00;99.90;;;12.54;47.72;102244.84;6058367;23;99125;-40
2023/12/19 01:30:30;;;;;;;4.27;3.37;;;12.00;99.90;;;12.31;51.64;102232.94;6032377;22;98027;-40
2023/12/19 01:32:56;;;;;;;6.97;3.93;;;11.60;99.90;;;12.31;47.82;102238.22;6047707;22;104651;-41
2023/12/19 01:35:22;;;;;;;5.43;3.43;;;11.60;99.90;;;12.40;48.62;102226.59;6002020;22;98212;-47
2023/12/19 01:37:47;;;;;;;4.30;3.10;;;11.80;99.90;;;12.32;52.98;102239.09;6014971;22;97977;-41
2023/12/19 01:40:13;;;;;;;6.53;3.33;;;11.60;99.90;;;12.54;53.50;102219.25;6067267;22;98644;-41
2023/12/19 01:42:42;;;;;;;3.27;2.47;;;11.90;99.90;;;12.74;53.35;102217.13;6036334;22;97628;-40
2023/12/19 01:45:15;;;;;;;7.90;4.40;;;12.20;99.90;;;12.75;51.41;102221.50;5998168;23;97821;-40
2023/12/19 01:47:44;;;;;;;5.80;3.40;;;12.30;99.90;;;12.86;50.67;102215.09;6029073;23;98904;-41
2023/12/19 01:50:16;;;;;;;3.07;2.50;;;12.40;99.90;;;12.91;51.92;102216.78;6029146;22;98371;-40
2023/12/19 01:52:48;;;;;;;5.03;2.50;;;12.40;99.90;;;12.91;52.60;102223.84;5947062;22;97976;-39
2023/12/19 01:55:15;;;;;;;4.93;3.07;;;12.40;99.90;;;13.04;49.65;102215.63;5988675;23;98311;-40
2023/12/19 01:57:42;;;;;;;4.63;3.40;;;12.60;99.90;;;12.87;50.93;102217.72;6032664;22;107689;-41
2023/12/19 02:00:12;;;;;;;5.47;3.47;;;12.30;99.90;;;12.57;51.81;102219.19;6039295;22;97121;-44
2023/12/19 02:02:40;;;;;;;6.47;4.13;;;11.90;99.90;;;12.72;49.28;102218.91;5967554;23;97441;-44
2023/12/19 02:05:09;;;;;;;6.13;3.70;;;12.20;99.90;;;12.48;48.38;102216.75;6027424;23;107688;-40
2023/12/19 02:07:34;;;;;;;6.23;3.87;;;11.90;99.90;;;12.50;47.67;102217.59;5995211;23;102480;-39
2023/12/19 02:10:00;;;;;;;8.30;4.53;;;12.00;99.90;;;12.18;47.69;102219.06;6059274;23;102187;-42
2023/12/19 02:12:26;;;;;;;4.13;3.47;;;11.70;99.90;;;12.17;49.50;102224.38;6071353;23;99487;-44
2023/12/19 02:14:53;;;;;;;7.57;3.63;;;11.50;99.90;;;12.15;52.96;102210.25;6082752;22;99860;-41
2023/12/19 02:17:21;;;;;;;4.03;3.00;;;11.50;99.90;;;12.17;53.56;102214.66;6029287;23;99075;-42
2023/12/19 02:19:48;;;;;;;5.73;3.50;;;11.50;99.90;;;12.11;54.00;102204.16;6061709;23;97297;-40
2023/12/19 02:22:15;;;;;;;7.23;3.43;;;11.50;99.90;;;11.92;52.12;102197.47;6084324;23;97267;-40
2023/12/19 02:24:41;;;;;;;5.97;3.07;;;11.30;99.90;;;12.01;54.59;102192.03;6051635;23;99341;-43
2023/12/19 02:27:11;;;;;;;5.83;4.10;;;11.30;99.90;;;11.86;53.30;102186.97;6015291;22;97521;-44
2023/12/19 02:29:39;;;;;;;7.10;3.90;;;11.20;99.90;;;11.67;52.19;102189.00;6035666;22;97450;-41
2023/12/19 02:32:05;;;;;;;5.90;3.30;;;11.10;99.90;;;11.59;53.45;102178.59;6047531;23;115638;-44
2023/12/19 02:34:34;;;;;;;6.03;3.23;;;11.00;99.90;;;11.87;54.93;102178.16;6005431;23;109921;-43
2023/12/19 02:37:00;;;;;;;3.13;2.20;;;11.30;99.90;;;12.00;55.85;102174.38;6045777;23;98453;-45
2023/12/19 02:39:26;;;;;;;7.03;3.97;;;11.40;99.90;;;11.77;51.71;102174.75;6016494;23;97714;-44
2023/12/19 02:41:52;;;;;;;5.50;3.03;;;11.40;99.90;;;11.86;55.37;102165.81;6083603;23;105139;-41
2023/12/19 02:44:18;;;;;;;5.83;3.90;;;11.30;99.90;;;11.89;54.98;102163.13;6017291;23;123256;-42
2023/12/19 02:46:43;;;;;;;5.93;3.63;;;11.20;99.90;;;11.69;54.32;102162.56;6077593;23;127404;-38
2023/12/19 02:49:09;;;;;;;3.23;2.77;;;11.00;99.90;;;12.09;55.37;102155.72;6069297;23;106165;-47
2023/12/19 02:51:35;;;;;;;4.60;3.07;;;11.50;99.90;;;12.08;55.10;102153.97;6088136;23;97864;-41
2023/12/19 02:54:01;;;;;;;7.60;4.37;;;11.50;99.90;;;11.79;52.51;102153.59;6078677;23;128528;-42
2023/12/19 02:56:28;;;;;;;8.00;3.67;;;11.30;99.90;;;11.62;52.83;102146.81;6081991;23;99062;-42
2023/12/19 02:58:54;;;;;;;5.10;3.40;;;11.10;99.90;;;11.69;53.83;102147.56;6055283;23;97124;-42
2023/12/19 03:01:19;;;;;;;6.80;3.37;;;11.00;99.90;;;11.77;54.96;102134.22;6042241;23;105571;-41
2023/12/19 03:03:45;;;;;;;3.20;2.23;;;11.10;99.90;;;12.08;55.93;102121.34;6078504;23;99716;-41
2023/12/19 03:06:14;;;;;;;4.60;1.97;;;11.40;99.90;;;12.19;54.57;102116.75;6069059;23;106294;-46
2023/12/19 03:08:52;;;;;;;4.67;2.90;;;11.60;99.90;;;12.04;53.50;102115.25;6038135;23;97036;-43
2023/12/19 03:11:17;;;;;;;2.50;2.10;;;11.60;99.90;;;12.38;55.37;102104.88;6079391;23;97487;-40
2023/12/19 03:13:45;;;;;;;5.43;3.67;;;11.80;99.90;;;12.38;51.32;102104.00;6053441;23;127509;-41
2023/12/19 03:16:11;;;;;;;5.50;2.90;;;11.90;99.90;;;12.43;54.01;102099.50;6066871;23;98019;-42
2023/12/19 03:18:36;;;;;;;2.40;1.90;;;11.90;99.90;;;12.37;54.71;102089.91;6082402;23;115178;-41
2023/12/19 03:21:06;;;;;;;6.00;3.83;;;11.80;99.90;;;12.44;52.95;102091.53;6085915;23;97487;-42
2023/12/19 03:23:32;;;;;;;4.20;2.33;;;11.90;99.90;;;12.51;52.32;102087.84;6082356;23;104191;-42
2023/12/19 03:26:00;;;;;;;6.43;3.63;;;11.90;99.90;;;12.27;50.05;102072.47;6083067;23;98880;-42
2023/12/19 03:28:25;;;;;;;2.53;2.03;;;11.70;99.90;;;12.27;54.72;102066.31;6079441;23;97404;-40
2023/12/19 03:30:51;;;;;;;4.40;2.90;;;11.60;99.90;;;12.36;52.04;102068.78;6041251;23;112445;-43
2023/12/19 03:33:17;;;;;;;2.90;1.80;;;11.70;99.90;;;12.53;54.87;102064.00;6022828;23;99353;-40
2023/12/19 03:35:43;;;;;;;3.57;2.20;;;11.90;99.90;;;12.58;53.82;102062.09;6078767;22;121432;-43
2023/12/19 03:38:11;;;;;;;3.77;2.63;;;12.00;99.90;;;12.57;53.92;102070.97;6032659;23;97579;-43
2023/12/19 03:40:37;;;;;;;5.93;3.53;;;11.90;99.90;;;12.49;51.87;102062.31;6081375;23;97066;-40
2023/12/19 03:43:03;;;;;;;4.30;2.60;;;11.90;99.90;;;12.40;54.21;102067.81;6071617;22;106928;-42
2023/12/19 03:45:29;;;;;;;4.47;3.23;;;11.70;99.90;;;12.39;50.60;102060.78;6051397;23;97918;-42
2023/12/19 03:47:55;;;;;;;3.63;2.47;;;11.80;99.90;;;12.40;52.27;102058.09;6072406;23;97645;-39
2023/12/19 03:50:20;;;;;;;5.73;3.27;;;11.80;99.90;;;12.11;50.80;102061.31;6040098;23;97983;-41
2023/12/19 03:52:46;;;;;;;4.53;3.27;;;11.60;99.90;;;11.96;51.05;102066.91;6033313;23;124090;-41
2023/12/19 03:55:12;;;;;;;3.80;2.87;;;11.40;99.90;;;11.85;51.28;102068.88;6059566;22;126781;-44
2023/12/19 03:57:37;;;;;;;5.43;3.17;;;11.30;99.90;;;11.85;52.28;102063.59;6043140;23;109142;-42
2023/12/19 04:00:04;;;;;;;5.23;3.47;;;11.20;99.90;;;11.91;54.43;102048.50;6070010;23;116818;-43
2023/12/19 04:02:30;;;;;;;3.33;2.37;;;11.30;99.90;;;11.70;53.36;102053.28;6064370;22;98896;-41
2023/12/19 04:04:56;;;;;;;4.23;2.60;;;11.10;99.90;;;11.65;52.77;102049.84;6078421;23;126055;-42
2023/12/19 04:07:22;;;;;;;4.57;2.67;;;11.10;99.90;;;11.56;53.34;102058.81;6064934;23;110401;-43
2023/12/19 04:09:48;;;;;;;3.90;2.60;;;11.00;99.90;;;11.40;52.33;102060.84;6078608;23;106585;-40
2023/12/19 04:12:14;;;;;;;2.47;1.90;;;10.80;99.90;;;11.43;56.57;102062.56;6060278;22;98756;-41
2023/12/19 04:14:39;;;;;;;4.13;2.77;;;10.80;99.90;;;11.27;52.21;102057.53;6064217;23;98375;-41
2023/12/19 04:17:05;;;;;;;3.73;2.30;;;10.80;99.90;;;11.20;52.49;102055.03;6058420;23;118312;-40
2023/12/19 04:19:31;;;;;;;2.93;2.30;;;10.70;99.90;;;11.19;55.07;102055.91;6055570;23;97357;-40
2023/12/19 04:22:00;;;;;;;2.67;2.07;;;10.70;99.90;;;11.33;55.86;102059.22;6026264;23;111993;-42
2023/12/19 04:24:26;;;;;;;4.70;2.57;;;10.80;99.90;;;11.52;53.91;102036.84;6079068;23;115819;-39
2023/12/19 04:26:52;;;;;;;4.80;2.20;;;11.00;99.90;;;11.78;56.60;102030.22;6003961;23;97250;-40
2023/12/19 04:29:18;;;;;;;2.13;1.63;;;11.30;99.90;;;11.90;54.52;102040.59;6071068;22;97543;-41
2023/12/19 04:31:44;;;;;;;2.73;2.03;;;11.50;99.90;;;11.86;54.19;102015.09;6028021;23;97856;-43
2023/12/19 04:34:10;;;;;;;2.50;1.77;;;11.60;99.90;;;11.95;55.75;102007.00;6080379;23;99447;-41
2023/12/19 04:36:36;;;;;;;2.70;2.27;;;11.50;99.90;;;11.87;53.89;102008.94;6086223;23;97523;-41
2023/12/19 04:39:07;;;;;;;4.33;2.07;;;11.40;99.90;;;11.87;52.55;102003.66;6084605;23;97410;-45
2023/12/19 04:41:34;;;;;;;3.17;1.97;;;11.40;99.90;;;12.14;55.64;102013.66;6037768;23;103823;-42
2023/12/19 04:44:00;;;;;;;6.10;2.63;;;11.60;99.90;;;12.01;50.96;102001.59;6061219;23;99334;-41
2023/12/19 04:46:28;;;;;;;3.03;1.93;;;11.70;99.90;;;11.86;52.41;101991.31;6065418;23;97963;-39
2023/12/19 04:48:55;;;;;;;3.60;2.50;;;11.40;99.90;;;11.85;51.83;101984.28;6064063;23;103460;-39
2023/12/19 04:51:24;;;;;;;3.23;1.73;;;11.40;99.90;;;11.97;53.55;101984.03;6002786;23;98569;-43
2023/12/19 04:53:50;;;;;;;4.40;2.60;;;11.50;99.90;;;12.13;52.92;101979.28;6045907;23;99180;-40
2023/12/19 04:56:16;;;;;;;3.23;2.07;;;11.70;99.90;;;12.08;52.52;101982.03;6054506;23;97007;-41
2023/12/19 04:58:45;;;;;;;4.23;2.23;;;11.70;99.90;;;12.11;53.91;101981.97;6082109;23;97002;-40
2023/12/19 05:01:12;;;;;;;4.13;2.30;;;11.70;99.90;;;12.07;52.48;101980.31;6082515;22;99237;-43
2023/12/19 05:03:39;;;;;;;3.63;2.40;;;11.70;99.90;;;11.87;53.59;101979.84;6045767;23;99020;-40
2023/12/19 05:06:16;;;;;;;4.50;2.40;;;11.40;99.90;;;11.71;52.23;101986.28;6071446;23;97296;-41
2023/12/19 05:08:42;;;;;;;3.40;2.43;;;11.40;99.90;;;11.55;54.17;101981.28;6028480;23;97017;-40
2023/12/19 05:11:08;;;;;;;4.50;2.63;;;11.10;99.90;;;11.43;54.88;101976.25;6085960;22;99494;-43
2023/12/19 05:13:34;;;;;;;2.70;1.80;;;11.00;99.90;;;11.66;56.65;101985.50;6036232;22;109291;-40
2023/12/19 05:16:13;;;;;;;4.27;2.47;;;11.20;99.90;;;11.79;55.50;101968.53;6042101;22;115431;-39
2023/12/19 05:18:41;;;;;;;3.83;2.10;;;11.40;99.90;;;11.82;54.11;101968.47;6039861;23;97450;-43
2023/12/19 05:21:07;;;;;;;2.70;2.00;;;11.50;99.90;;;11.88;54.63;101978.94;6050849;23;98482;-41
2023/12/19 05:23:35;;;;;;;3.97;2.10;;;11.50;99.90;;;11.78;54.09;101966.78;6016812;23;103285;-43
2023/12/19 05:26:05;;;;;;;3.13;1.97;;;11.40;99.90;;;11.96;53.76;101966.44;6029523;23;97840;-45
2023/12/19 05:28:32;;;;;;;3.97;2.10;;;11.50;99.90;;;11.90;54.88;101956.00;6066371;22;101980;-47
2023/12/19 05:30:58;;;;;;;4.13;2.00;;;11.50;99.90;;;11.78;54.62;101962.34;6042335;23;99153;-39
2023/12/19 05:33:28;;;;;;;2.70;2.17;;;11.40;99.90;;;11.73;54.79;101958.94;6026374;23;127192;-40
2023/12/19 05:35:54;;;;;;;2.73;1.80;;;11.20;99.90;;;11.80;54.59;101957.06;6044316;22;97441;-41
2023/12/19 05:38:21;;;;;;;1.57;1.20;;;11.30;99.90;;;11.92;56.65;101948.88;6067213;23;107509;-40
2023/12/19 05:40:47;;;;;;;2.30;1.90;;;11.40;99.90;;;11.87;55.04;101945.47;6080498;23;98479;-40
2023/12/19 05:43:14;;;;;;;1.70;1.30;;;11.50;99.90;;;12.13;55.64;101948.41;6067576;23;97484;-43
2023/12/19 05:45:40;;;;;;;2.43;1.83;;;11.60;99.90;;;12.25;52.77;101930.53;6086327;23;97237;-40
2023/12/19 05:48:07;;;;;;;3.40;1.90;;;12.00;99.90;;;12.43;53.82;101935.41;6067876;22;113263;-41
2023/12/19 05:50:33;;;;;;;1.67;1.23;;;12.20;99.90;;;12.56;55.09;101914.81;6062837;22;98493;-39
2023/12/19 05:52:59;;;;;;;2.10;1.60;;;12.20;99.90;;;12.32;52.84;101926.88;6049547;23;99168;-41
2023/12/19 05:55:25;;;;;;;2.70;1.83;;;12.10;99.90;;;12.12;53.34;101917.59;6084676;22;97250;-43
2023/12/19 05:57:50;;;;;;;4.30;1.50;;;11.80;99.90;;;12.31;55.64;101909.25;6032383;22;97928;-41
2023/12/19 06:00:19;;;;;;;2.33;1.40;;;11.80;99.90;;;12.33;54.97;101918.03;6077504;23;121521;-40
2023/12/19 06:02:48;;;;;;;2.70;1.60;;;11.90;99.90;;;12.33;54.06;101908.31;6044975;22;99057;-42
2023/12/19 06:05:14;;;;;;;1.83;1.33;;;11.90;99.90;;;12.69;54.80;101901.25;6052850;23;98223;-43
2023/12/19 06:07:42;;;;;;;1.37;0.90;;;12.30;99.90;;;12.80;54.56;101899.22;6066700;23;97493;-45
2023/12/19 06:10:10;;;;;;;2.60;1.83;;;12.50;99.90;;;12.87;51.69;101889.31;6067069;23;102031;-41
2023/12/19 06:12:36;;;;;;;1.83;1.40;;;12.70;99.90;;;13.06;53.81;101880.00;6021294;23;97834;-42
2023/12/19 06:15:11;;;;;;;2.70;1.53;;;12.70;99.90;;;13.06;52.48;101874.72;6050072;22;99324;-39
2023/12/19 06:17:43;;;;;;;3.23;2.20;;;12.90;99.90;;;12.71;52.89;101896.78;6057826;22;97415;-40
2023/12/19 06:20:15;;;;;;;2.47;1.80;;;12.40;99.90;;;12.38;53.29;101905.53;6082881;22;102680;-41
2023/12/19 06:22:44;;;;;;;4.47;2.37;;;11.90;99.90;;;12.10;54.74;101910.59;6048647;22;104465;-39
2023/12/19 06:25:10;;;;;;;2.87;2.00;;;11.50;99.90;;;11.85;54.67;101911.09;6052103;23;97725;-41
2023/12/19 06:27:40;;;;;;;3.20;1.87;;;11.30;99.90;;;11.68;56.38;101907.06;6081095;23;97911;-38
2023/12/19 06:30:08;;;;;;;3.40;2.20;;;11.20;99.90;;;11.45;56.10;101905.75;6011808;23;97958;-39
2023/12/19 06:32:36;;;;;;;3.60;2.20;;;11.00;99.90;;;11.34;57.09;101918.28;6036089;23;99424;-41
2023/12/19 06:35:07;;;;;;;1.67;1.33;;;10.80;99.90;;;11.57;58.17;101910.81;6054929;22;97562;-41
2023/12/19 06:37:34;;;;;;;2.10;1.43;;;11.00;99.90;;;11.63;58.03;101900.09;6065899;23;97415;-40
2023/12/19 06:40:02;;;;;;;3.10;1.93;;;11.10;99.90;;;11.65;56.19;101917.69;6082497;22;99075;-43
2023/12/19 06:42:28;;;;;;;2.67;1.40;;;11.20;99.90;;;11.55;57.06;101907.28;6066526;22;98012;-42
2023/12/19 06:44:54;;;;;;;3.20;1.27;;;11.10;99.90;;;11.68;56.25;101899.13;6079464;23;97303;-41
2023/12/19 06:47:20;;;;;;;3.13;1.33;;;11.20;99.90;;;11.98;56.99;101895.84;6083090;23;111897;-41
2023/12/19 06:49:46;;;;;;;1.67;1.37;;;11.40;99.90;;;11.88;56.71;101899.63;6046191;23;98221;-41
2023/12/19 06:52:11;;;;;;;3.03;1.93;;;11.40;99.90;;;11.79;56.03;101905.09;6079545;23;110985;-40
2023/12/19 06:54:38;;;;;;;1.57;1.07;;;11.30;99.90;;;11.92;57.27;101903.94;6048345;23;97046;-45
2023/12/19 06:57:05;;;;;;;3.20;2.30;;;11.30;99.90;;;11.80;56.01;101918.28;6019498;23;97599;-43
2023/12/19 06:59:34;;;;;;;4.53;2.00;;;11.20;99.90;;;11.77;56.61;101912.16;6065632;23;99627;-42
2023/12/19 07:02:00;;;;;;;1.50;0.80;;;11.10;99.90;;;11.98;57.29;101895.00;6039587;22;106002;-43
2023/12/19 07:04:26;;;;;;;2.53;1.70;;;11.40;99.90;;;11.97;54.85;101904.69;6079991;23;97347;-42
2023/12/19 07:06:53;;;;;;;1.57;1.33;;;11.50;99.90;;;12.17;56.08;101902.50;6081048;23;97239;-41
2023/12/19 07:09:19;;;;;;;3.17;1.57;;;11.60;99.90;;;12.25;55.74;101897.03;6080612;23;97873;-42
2023/12/19 07:11:45;;;;;;;1.27;0.87;;;11.70;99.90;;;12.48;55.84;101881.47;6080258;22;109140;-43
2023/12/19 07:14:10;;;;;;;1.70;1.03;;;11.90;99.90;;;12.60;55.13;101869.72;6053710;23;112231;-41
2023/12/19 07:16:36;;;;;;;2.73;1.63;;;12.20;99.90;;;12.77;53.38;101872.81;6057447;23;113044;-43
2023/12/19 07:19:03;;;;;;;2.70;2.00;;;12.40;99.90;;;12.74;52.46;101872.91;6064218;22;111794;-43
2023/12/19 07:21:32;;;;;;;2.50;1.77;;;12.40;99.90;;;12.82;52.69;101868.25;6050810;22;99209;-41
2023/12/19 07:23:59;;;;;;;2.33;1.00;;;12.40;99.90;;;12.91;53.47;101866.31;6012399;23;101763;-40
2023/12/19 07:26:27;;;;;;;2.30;1.20;;;12.50;99.90;;;13.01;52.88;101859.81;6003847;23;97480;-40
2023/12/19 07:28:58;;;;;;;1.83;1.20;;;12.60;99.90;;;13.00;54.03;101868.69;6026655;23;98006;-45
2023/12/19 07:31:28;;;;;;;3.63;1.77;;;12.50;99.90;;;12.64;52.29;101858.16;6057504;22;99209;-41
2023/12/19 07:33:57;;;;;;;2.33;1.60;;;12.30;99.90;;;12.39;53.46;101859.66;6082564;22;97807;-41
2023/12/19 07:36:24;;;;;;;2.27;1.73;;;11.90;99.90;;;12.43;55.48;101859.53;6066212;23;97012;-40
2023/12/19 07:38:50;;;;;;;2.13;1.53;;;11.80;99.90;;;12.34;55.65;101851.84;6080328;22;98168;-43
2023/12/19 07:41:16;;;;;;;4.87;2.53;;;11.70;99.90;;;12.22;54.74;101841.53;6082256;22;97767;-40
2023/12/19 07:43:42;;;;;;;3.30;1.50;;;11.70;99.90;;;12.41;55.09;101836.66;6083078;22;97377;-40
2023/12/19 07:46:08;;;;;;;1.57;0.90;;;11.80;99.90;;;12.52;55.95;101845.22;6046470;22;99384;-39
2023/12/19 07:48:34;;;;;;;2.33;1.70;;;11.90;99.90;;;12.59;54.00;101835.38;6077260;22;120439;-43
2023/12/19 07:51:00;;;;;;;1.23;0.73;;;12.20;99.90;;;12.69;55.02;101824.47;6081804;23;107607;-41
2023/12/19 07:53:26;;;;;;;1.70;1.23;;;12.30;99.90;;;12.70;54.63;101828.00;6082652;22;97062;-44
2023/12/19 07:55:53;;;;;;;2.57;1.40;;;12.20;99.90;;;12.66;53.16;101831.63;6079577;22;97102;-41
2023/12/19 07:58:19;;;;;;;3.73;1.93;;;12.40;99.90;;;12.53;53.12;101831.06;6068711;22;98032;-42
2023/12/19 08:00:47;;;;;;;2.60;1.57;;;12.20;99.90;;;12.26;54.67;101839.69;6082111;22;97284;-44
2023/12/19 08:03:15;;;;;;;2.07;1.30;;;11.80;99.90;;;12.07;54.92;101829.53;6082518;23;97975;-40
2023/12/19 08:05:48;;;;;;;1.43;1.17;;;11.60;99.90;;;11.90;56.04;101839.66;6084265;22;97421;-41
2023/12/19 08:08:15;;;;;;;1.80;1.47;;;11.40;99.90;;;12.02;56.53;101835.84;6054035;23;103234;-43
2023/12/19 08:10:43;;;;;;;3.30;1.43;;;11.40;99.90;;;11.86;56.65;101837.94;6026145;22;98794;-43
2023/12/19 08:13:09;;;;;;;1.43;1.03;;;11.30;99.90;;;11.91;56.96;101836.09;6031868;22;97489;-40
2023/12/19 08:15:35;;;;;;;1.87;1.03;;;11.30;99.90;;;12.19;55.81;101826.63;6082077;22;97969;-41
2023/12/19 08:18:00;;;;;;;3.60;1.60;;;11.60;99.90;;;12.04;56.37;101832.28;6080036;22;99253;-43
2023/12/19 08:20:26;;;;;;;1.60;1.10;;;11.50;99.90;;;12.23;57.14;101826.53;6063511;22;112490;-40
2023/12/19 08:22:52;;;;;;;1.87;1.47;;;11.60;99.90;;;12.08;56.41;101833.06;5985274;23;119586;-39
2023/12/19 08:25:17;;;;;;;2.07;1.30;;;11.60;99.90;;;11.80;55.97;101853.97;6081486;22;97485;-42
2023/12/19 08:27:44;;;;;;;2.87;1.60;;;11.40;99.90;;;11.76;57.17;101846.97;6080547;23;123676;-44
2023/12/19 08:30:10;;;;;;;1.23;1.03;;;11.20;99.90;;;11.75;57.63;101845.25;6085299;22;97830;-40
2023/12/19 08:32:36;;;;;;;2.13;1.47;;;11.20;99.90;;;11.78;56.35;101839.88;6080195;22;97868;-41
2023/12/19 08:35:03;;;;;;;1.87;1.10;;;11.30;99.90;;;11.78;57.37;101840.75;6040552;23;117178;-44
2023/12/19 08:37:28;;;;;;;0.80;0.70;;;11.30;99.90;;;12.09;57.62;101840.97;6067000;22;98864;-45
2023/12/19 08:39:56;;;;;;;1.63;1.03;;;11.50;99.90;;;12.19;56.96;101839.84;6065040;22;98896;-42
2023/12/19 08:42:23;;;;;;;1.17;0.80;;;11.70;99.90;;;12.25;56.70;101830.00;6051222;22;97603;-40
2023/12/19 08:44:52;;;;;;;1.30;0.80;;;11.70;99.90;;;12.24;56.67;101833.56;6067283;22;97556;-42
2023/12/19 08:47:18;;;;;;;2.00;1.10;;;11.70;99.90;;;12.30;56.49;101818.44;6022801;22;99283;-42
2023/12/19 08:49:47;;;;;;;3.07;1.17;;;11.80;99.90;;;12.28;55.33;101814.94;6075704;22;98803;-41
2023/12/19 08:52:13;;;;;;;2.03;1.20;;;11.80;99.90;;;12.20;55.77;101795.75;6082343;22;101422;-41
2023/12/19 08:54:40;;;;;;;2.60;1.00;;;11.80;99.90;;;12.38;56.26;101783.81;6033770;22;119241;-44
2023/12/19 08:57:05;;;;;;;1.60;0.90;;;11.90;99.90;;;12.45;55.45;101785.44;5978616;22;100279;-40
2023/12/19 08:59:32;;;;;;;2.03;1.27;;;12.00;99.90;;;12.38;54.80;101781.19;6024731;22;113933;-42
2023/12/19 09:01:58;;;;;;;1.27;0.77;;;12.00;99.90;;;12.38;55.00;101783.81;6026187;22;107673;-40
2023/12/19 09:04:27;;;;;;;3.20;1.00;;;12.00;99.90;;;12.44;54.70;101770.44;6003055;22;98009;-43
2023/12/19 09:06:52;;;;;;;1.10;0.63;;;12.00;99.90;;;12.53;55.84;101767.56;5992689;23;108582;-41
2023/12/19 09:09:18;;;;;;;2.60;0.53;;;12.10;99.90;;;12.60;55.73;101766.50;6010685;23;108177;-44
2023/12/19 09:11:44;;;;;;;2.03;0.80;;;12.20;99.90;;;12.44;54.02;101762.50;6014112;22;101323;-44
2023/12/19 09:14:13;;;;;;;3.57;1.87;;;12.10;99.90;;;12.34;54.14;101772.47;6079682;22;97389;-41
2023/12/19 09:16:39;;;;;;;0.87;0.67;;;12.00;99.90;;;12.46;55.42;101766.00;6042780;23;104013;-41
2023/12/19 09:19:05;;;;;;;1.50;1.10;;;12.00;99.90;;;12.33;54.76;101777.78;6006082;22;98518;-40
2023/12/19 09:21:31;;;;;;;2.20;0.83;;;11.90;99.90;;;12.28;55.56;101771.72;5947512;22;97718;-44
2023/12/19 09:24:00;;;;;;;1.60;1.00;;;11.80;99.90;;;12.18;54.90;101771.97;6006043;22;98229;-41
2023/12/19 09:26:27;;;;;;;0.90;0.70;;;11.80;99.90;;;12.17;54.93;101767.59;5972477;22;98433;-43
2023/12/19 09:28:55;;;;;;;1.20;0.80;;;11.80;99.90;;;12.11;55.65;101770.38;6049102;22;99542;-43
2023/12/19 09:31:21;;;;;;;1.47;0.90;;;11.70;99.90;;;11.99;55.29;101775.94;6036810;22;97231;-42
2023/12/19 09:33:47;;;;;;;1.17;1.00;;;11.60;99.90;;;12.19;56.54;101763.13;6077982;22;97220;-41
2023/12/19 09:36:21;;;;;;;0.93;0.60;;;11.80;99.90;;;12.10;55.51;101763.34;5984708;22;135461;-39
2023/12/19 09:38:47;;;;;;;4.43;1.43;;;11.80;99.90;;;11.98;55.05;101757.47;5925672;22;102117;-41
2023/12/19 09:41:13;;;;;;;2.00;0.90;;;11.70;99.90;;;12.23;54.66;101748.03;5991565;23;98195;-40
2023/12/19 09:43:41;;;;;;;1.43;0.80;;;11.90;99.90;;;12.11;54.67;101746.56;6026373;22;97301;-42
2023/12/19 09:46:13;;;;;;;2.50;0.80;;;11.80;99.90;;;12.02;55.75;101738.88;6027695;22;104873;-41
2023/12/19 09:48:41;;;;;;;1.80;0.83;;;11.70;99.90;;;12.07;56.19;101731.69;6015759;22;99260;-43
2023/12/19 09:51:24;;;;;;;1.53;1.10;;;11.70;99.90;;;12.19;54.96;101726.09;6013780;22;97530;-41
2023/12/19 09:53:53;;;;;;;2.40;0.77;;;11.80;99.90;;;12.51;56.05;101732.31;6017319;22;97621;-41
2023/12/19 09:56:19;;;;;;;1.10;0.50;;;12.20;99.90;;;12.77;55.16;101713.97;5978485;22;99134;-44
2023/12/19 09:58:47;;;;;;;2.13;1.10;;;12.50;99.90;;;12.65;53.50;101724.88;6015401;22;123400;-43
2023/12/19 10:01:17;;;;;;;1.47;0.80;;;12.50;99.90;;;12.74;53.97;101724.63;6001527;23;98161;-43
2023/12/19 10:03:44;;;;;;;1.07;0.90;;;12.50;99.90;;;12.92;54.47;101717.09;6016699;22;97294;-41
2023/12/19 10:06:17;;;;;;;3.03;1.10;;;12.60;99.90;;;12.87;52.01;101714.53;6034828;22;98883;-40
2023/12/19 10:08:44;;;;;;;1.70;1.10;;;12.70;99.90;;;12.90;53.56;101713.63;6037543;22;103255;-42
2023/12/19 10:11:21;;;;;;;2.40;1.23;;;12.60;99.90;;;12.96;52.61;101709.00;6034845;22;119475;-41